createdAt,value
2023-01-04T00:00:03.189Z,0.90
2023-01-04T00:00:39.453Z,1.08
2023-01-04T00:01:15.215Z,0.77
2023-01-04T00:01:50.437Z,0.68
2023-01-04T00:02:23.655Z,0.90
2023-01-04T00:02:57.842Z,0.57
2023-01-04T00:03:33.004Z,0.73
2023-01-04T00:04:06.713Z,0.60
2023-01-04T00:04:42.847Z,1.65
2023-01-04T00:05:17.001Z,0.43
2023-01-04T00:05:50.808Z,0.95
2023-01-04T00:06:25.854Z,2.65
2023-01-04T00:07:00.338Z,0.63
2023-01-04T00:07:35.461Z,1.52
2023-01-04T00:08:08.819Z,1.00
2023-01-04T00:08:43.427Z,1.27
2023-01-04T00:09:19.592Z,0.93
2023-01-04T00:09:52.880Z,0.82
2023-01-04T00:10:26.524Z,0.43
2023-01-04T00:11:03.512Z,0.77
2023-01-04T00:11:38.234Z,2.85
2023-01-04T00:12:12.752Z,0.80
2023-01-04T00:12:47.363Z,2.92
2023-01-04T00:13:23.516Z,3.35
2023-01-04T00:13:58.079Z,1.40
2023-01-04T00:14:37.451Z,0.80
2023-01-04T00:15:13.395Z,1.15
2023-01-04T00:15:46.781Z,0.43
2023-01-04T00:16:23.699Z,1.10
2023-01-04T00:16:58.227Z,0.77
2023-01-04T00:17:31.777Z,0.60
2023-01-04T00:18:06.282Z,1.52
2023-01-04T00:18:40.183Z,0.88
2023-01-04T00:19:15.673Z,1.25
2023-01-04T00:19:49.991Z,0.98
2023-01-04T00:20:25.019Z,0.80
2023-01-04T00:21:09.213Z,1.02
2023-01-04T00:21:45.053Z,0.88
2023-01-04T00:22:18.414Z,0.60
2023-01-04T00:22:53.376Z,0.55
2023-01-04T00:23:29.661Z,1.40
2023-01-04T00:24:04.481Z,0.85
2023-01-04T00:24:39.106Z,0.57
2023-01-04T00:25:14.787Z,0.68
2023-01-04T00:25:54.442Z,0.95
2023-01-04T00:26:30.334Z,0.57
2023-01-04T00:27:07.707Z,0.60
2023-01-04T00:27:43.468Z,1.70
2023-01-04T00:28:18.524Z,0.68
2023-01-04T00:28:56.310Z,0.63
2023-01-04T00:29:30.238Z,0.65
2023-01-04T00:30:05.792Z,1.20
2023-01-04T00:30:39.464Z,1.23
2023-01-04T00:31:16.194Z,0.88
2023-01-04T00:31:50.351Z,0.47
2023-01-04T00:32:23.938Z,0.85
2023-01-04T00:32:58.567Z,0.70
2023-01-04T00:33:34.912Z,0.75
2023-01-04T00:34:11.706Z,0.80
2023-01-04T00:34:47.397Z,0.65
2023-01-04T00:35:44.057Z,1.25
2023-01-04T00:36:16.805Z,0.90
2023-01-04T00:36:50.731Z,0.82
2023-01-04T00:37:24.721Z,1.13
2023-01-04T00:37:59.306Z,0.63
2023-01-04T00:38:34.199Z,1.38
2023-01-04T00:39:10.721Z,0.93
2023-01-04T00:39:45.794Z,1.42
2023-01-04T00:40:20.289Z,0.45
2023-01-04T00:40:54.112Z,0.70
2023-01-04T00:41:57.514Z,0.93
2023-01-04T00:42:26.666Z,1.08
2023-01-04T00:43:00.591Z,1.13
2023-01-04T00:43:33.981Z,2.33
2023-01-04T00:44:09.057Z,1.50
2023-01-04T00:44:45.448Z,0.30
2023-01-04T00:45:20.408Z,1.02
2023-01-04T00:45:53.544Z,0.75
2023-01-04T00:46:29.149Z,0.70
2023-01-04T00:47:04.421Z,0.90
2023-01-04T00:47:39.209Z,1.40
2023-01-04T00:48:13.224Z,1.48
2023-01-04T00:48:49.022Z,0.93
2023-01-04T00:49:25.062Z,2.90
2023-01-04T00:49:59.059Z,0.77
2023-01-04T00:50:32.369Z,1.98
2023-01-04T00:51:08.501Z,1.10
2023-01-04T00:51:43.294Z,0.85
2023-01-04T00:52:17.778Z,1.25
2023-01-04T00:52:52.241Z,0.98
2023-01-04T00:53:26.193Z,1.13
2023-01-04T00:54:02.735Z,1.40
2023-01-04T00:54:36.779Z,2.10
2023-01-04T00:55:12.133Z,1.80
2023-01-04T00:55:48.283Z,1.23
2023-01-04T00:56:22.782Z,0.85
2023-01-04T00:56:57.449Z,1.00
2023-01-04T00:57:33.880Z,1.30
2023-01-04T00:58:08.193Z,0.68
2023-01-04T00:58:42.704Z,1.42
2023-01-04T00:59:17.570Z,0.82
2023-01-04T00:59:53.031Z,1.42
2023-01-04T01:00:26.487Z,2.45
2023-01-04T01:01:06.245Z,1.63
2023-01-04T01:01:42.314Z,2.13
2023-01-04T01:02:16.500Z,2.13
2023-01-04T01:02:51.354Z,3.33
2023-01-04T01:03:26.934Z,2.38
2023-01-04T01:04:02.923Z,2.35
2023-01-04T01:04:37.596Z,4.57
2023-01-04T01:05:14.156Z,3.13
2023-01-04T01:05:47.466Z,3.08
2023-01-04T01:06:22.752Z,3.50
2023-01-04T01:06:57.266Z,3.22
2023-01-04T01:07:31.868Z,4.10
2023-01-04T01:08:20.998Z,3.72
2023-01-04T01:08:55.836Z,3.17
2023-01-04T01:09:29.774Z,3.65
2023-01-04T01:10:05.073Z,4.55
2023-01-04T01:10:40.130Z,3.92
2023-01-04T01:11:13.734Z,4.38
2023-01-04T01:11:48.914Z,4.15
2023-01-04T01:12:22.450Z,3.70
2023-01-04T01:12:59.453Z,5.00
2023-01-04T01:13:34.269Z,6.03
2023-01-04T01:14:09.901Z,4.85
2023-01-04T01:14:43.301Z,4.20
2023-01-04T01:15:19.072Z,5.75
2023-01-04T01:15:53.217Z,4.95
2023-01-04T01:17:21.845Z,6.47
2023-01-04T01:17:55.501Z,6.40
2023-01-04T01:18:30.753Z,5.68
2023-01-04T01:19:06.270Z,5.88
2023-01-04T01:19:39.775Z,8.30
2023-01-04T01:20:13.429Z,5.95
2023-01-04T01:20:48.131Z,9.15
2023-01-04T01:21:24.039Z,5.47
2023-01-04T01:21:59.580Z,6.30
2023-01-04T01:22:36.083Z,5.43
2023-01-04T01:23:09.549Z,5.90
2023-01-04T01:23:45.543Z,4.57
2023-01-04T01:24:19.830Z,5.45
2023-01-04T01:24:54.426Z,5.85
2023-01-04T01:25:30.460Z,5.78
2023-01-04T01:26:04.455Z,5.07
2023-01-04T01:26:39.504Z,6.20
2023-01-04T01:27:14.353Z,5.40
2023-01-04T01:27:48.320Z,6.47
2023-01-04T01:28:24.666Z,6.38
2023-01-04T01:28:58.680Z,5.35
2023-01-04T01:29:33.773Z,5.95
2023-01-04T01:30:09.430Z,6.13
2023-01-04T01:30:43.208Z,5.65
2023-01-04T01:31:18.513Z,7.80
2023-01-04T01:31:54.004Z,5.22
2023-01-04T01:32:28.353Z,6.10
2023-01-04T01:33:03.008Z,6.68
2023-01-04T01:33:39.265Z,4.90
2023-01-04T01:34:13.547Z,5.50
2023-01-04T01:34:48.824Z,6.38
2023-01-04T01:35:22.478Z,6.82
2023-01-04T01:35:57.059Z,6.05
2023-01-04T01:36:32.350Z,5.63
2023-01-04T01:37:06.501Z,5.60
2023-01-04T01:37:41.919Z,5.97
2023-01-04T01:38:17.410Z,4.63
2023-01-04T01:38:51.264Z,5.88
2023-01-04T01:39:27.075Z,6.40
2023-01-04T01:40:01.712Z,8.40
2023-01-04T01:40:35.344Z,5.45
2023-01-04T01:41:12.114Z,5.88
2023-01-04T01:41:47.247Z,5.78
2023-01-04T01:42:21.917Z,6.35
2023-01-04T01:42:55.064Z,5.78
2023-01-04T01:43:52.218Z,6.47
2023-01-04T01:44:44.807Z,5.50
2023-01-04T01:45:26.108Z,10.48
2023-01-04T01:46:00.507Z,6.72
2023-01-04T01:46:37.395Z,5.75
2023-01-04T01:47:15.719Z,7.30
2023-01-04T01:47:51.292Z,9.13
2023-01-04T01:48:27.942Z,5.40
2023-01-04T01:49:04.849Z,6.25
2023-01-04T01:49:40.893Z,6.43
2023-01-04T01:50:25.196Z,6.85
2023-01-04T01:51:00.820Z,5.85
2023-01-04T01:51:36.030Z,5.82
2023-01-04T01:52:10.714Z,7.22
2023-01-04T01:52:44.653Z,6.50
2023-01-04T01:53:19.796Z,7.57
2023-01-04T01:53:55.967Z,6.70
2023-01-04T01:54:31.427Z,8.23
2023-01-04T01:55:07.319Z,7.25
2023-01-04T01:55:42.179Z,8.13
2023-01-04T01:56:17.200Z,8.27
2023-01-04T01:56:53.422Z,6.25
2023-01-04T01:57:28.835Z,6.15
2023-01-04T01:58:04.109Z,6.70
2023-01-04T01:58:42.177Z,6.28
2023-01-04T01:59:17.530Z,6.53
2023-01-04T01:59:53.721Z,8.00
2023-01-04T02:00:30.143Z,6.00
2023-01-04T02:01:05.108Z,6.72
2023-01-04T02:01:39.354Z,5.78
2023-01-04T02:02:14.352Z,5.35
2023-01-04T02:02:53.446Z,6.38
2023-01-04T02:03:32.436Z,9.30
2023-01-04T02:04:07.068Z,5.63
2023-01-04T02:04:42.868Z,6.93
2023-01-04T02:05:19.523Z,5.72
2023-01-04T02:05:55.330Z,7.10
2023-01-04T02:06:32.997Z,6.70
2023-01-04T02:07:08.343Z,8.50
2023-01-04T02:07:41.864Z,7.78
2023-01-04T02:08:17.232Z,8.43
2023-01-04T02:08:52.216Z,7.35
2023-01-04T02:09:26.650Z,6.05
2023-01-04T02:10:01.212Z,6.10
2023-01-04T02:10:37.109Z,6.07
2023-01-04T02:11:13.730Z,10.43
2023-01-04T02:11:47.587Z,6.25
2023-01-04T02:12:22.676Z,5.22
2023-01-04T02:12:56.938Z,8.07
2023-01-04T02:13:46.385Z,5.60
2023-01-04T02:14:28.195Z,5.40
2023-01-04T02:15:09.227Z,4.97
2023-01-04T02:16:07.310Z,5.88
2023-01-04T02:16:50.621Z,7.78
2023-01-04T02:17:27.410Z,6.20
2023-01-04T02:18:04.220Z,5.63
2023-01-04T02:18:42.157Z,6.32
2023-01-04T02:19:28.897Z,6.40
2023-01-04T02:20:10.063Z,7.18
2023-01-04T02:20:47.912Z,6.03
2023-01-04T02:21:23.983Z,6.28
2023-01-04T02:22:06.555Z,6.25
2023-01-04T02:22:55.386Z,5.25
2023-01-04T02:23:39.765Z,7.57
2023-01-04T02:24:25.762Z,8.30
2023-01-04T02:25:07.872Z,6.95
2023-01-04T02:26:05.950Z,7.82
2023-01-04T02:26:58.292Z,7.72
2023-01-04T02:27:46.746Z,7.03
2023-01-04T02:28:26.994Z,6.00
2023-01-04T02:29:35.790Z,7.28
2023-01-04T02:30:28.346Z,7.57
2023-01-04T02:31:13.630Z,7.82
2023-01-04T02:31:50.940Z,6.95
2023-01-04T02:32:29.477Z,6.57
2023-01-04T02:33:12.222Z,5.78
2023-01-04T02:33:50.472Z,6.38
2023-01-04T02:34:28.593Z,7.35
2023-01-04T02:35:06.862Z,6.70
2023-01-04T02:35:45.983Z,6.15
2023-01-04T02:36:23.260Z,7.28
2023-01-04T02:37:01.156Z,5.97
2023-01-04T02:37:39.689Z,8.70
2023-01-04T02:38:16.207Z,5.07
2023-01-04T02:38:58.473Z,5.75
2023-01-04T02:39:39.055Z,5.45
2023-01-04T02:40:19.558Z,6.43
2023-01-04T02:40:59.564Z,5.65
2023-01-04T02:41:35.466Z,8.18
2023-01-04T02:42:14.323Z,5.43
2023-01-04T02:43:15.889Z,5.38
2023-01-04T02:44:12.695Z,5.18
2023-01-04T02:45:02.191Z,4.90
2023-01-04T02:45:39.676Z,7.07
2023-01-04T02:46:18.285Z,6.28
2023-01-04T02:46:55.549Z,5.50
2023-01-04T02:47:51.285Z,6.97
2023-01-04T02:48:43.539Z,6.35
2023-01-04T02:49:35.856Z,6.97
2023-01-04T02:50:34.222Z,8.52
2023-01-04T02:51:23.893Z,8.05
2023-01-04T02:51:58.470Z,6.78
2023-01-04T02:52:32.968Z,6.75
2023-01-04T02:53:08.453Z,7.70
2023-01-04T02:53:43.252Z,6.63
2023-01-04T02:54:17.747Z,5.22
2023-01-04T02:54:54.056Z,7.43
2023-01-04T02:55:32.161Z,6.22
2023-01-04T02:56:10.336Z,5.18
2023-01-04T02:56:58.372Z,7.55
2023-01-04T02:57:40.617Z,6.10
2023-01-04T02:58:21.274Z,6.32
2023-01-04T02:59:04.267Z,8.43
2023-01-04T02:59:52.328Z,7.13
2023-01-04T03:01:02.088Z,7.32
2023-01-04T03:02:01.564Z,7.35
2023-01-04T03:03:01.272Z,7.53
2023-01-04T03:03:59.566Z,5.80
2023-01-04T03:04:59.150Z,6.70
2023-01-04T03:05:55.549Z,8.52
2023-01-04T03:06:35.692Z,6.38
2023-01-04T03:07:11.907Z,6.53
2023-01-04T03:07:51.308Z,6.97
2023-01-04T03:08:30.825Z,7.28
2023-01-04T03:09:07.797Z,7.38
2023-01-04T03:09:43.757Z,6.20
2023-01-04T03:10:21.828Z,7.20
2023-01-04T03:10:58.349Z,6.20
2023-01-04T03:11:53.467Z,7.75
2023-01-04T03:12:32.198Z,7.53
2023-01-04T03:13:08.867Z,7.63
2023-01-04T03:13:44.314Z,7.88
2023-01-04T03:14:32.136Z,8.98
2023-01-04T03:15:12.579Z,7.35
2023-01-04T03:15:48.849Z,8.38
2023-01-04T03:16:24.431Z,9.23
2023-01-04T03:17:01.797Z,6.15
2023-01-04T03:17:37.225Z,8.32
2023-01-04T03:18:15.396Z,6.72
2023-01-04T03:18:52.168Z,9.15
2023-01-04T03:19:45.595Z,7.72
2023-01-04T03:20:19.846Z,8.60
2023-01-04T03:20:55.775Z,7.93
2023-01-04T03:21:30.129Z,8.48
2023-01-04T03:22:03.815Z,7.72
2023-01-04T03:22:57.868Z,8.02
2023-01-04T03:23:52.157Z,5.43
2023-01-04T03:24:48.717Z,6.53
2023-01-04T03:25:42.557Z,6.47
2023-01-04T03:26:35.205Z,6.65
2023-01-04T03:27:28.247Z,6.95
2023-01-04T03:28:21.257Z,6.15
2023-01-04T03:29:13.751Z,8.27
2023-01-04T03:30:07.843Z,9.20
2023-01-04T03:31:08.252Z,8.00
2023-01-04T03:32:58.108Z,7.70
2023-01-04T03:33:50.088Z,7.13
2023-01-04T03:34:41.891Z,8.98
2023-01-04T03:35:28.748Z,9.00
2023-01-04T03:36:05.914Z,8.50
2023-01-04T03:36:47.343Z,9.27
2023-01-04T03:37:26.548Z,8.25
2023-01-04T03:38:22.301Z,9.25
2023-01-04T03:39:16.847Z,9.60
2023-01-04T03:40:19.562Z,9.55
2023-01-04T03:41:16.857Z,8.35
2023-01-04T03:42:13.593Z,9.18
2023-01-04T03:43:08.803Z,7.75
2023-01-04T03:44:02.363Z,7.20
2023-01-04T03:44:58.660Z,7.13
2023-01-04T03:45:53.143Z,7.78
2023-01-04T03:46:48.157Z,7.40
2023-01-04T03:47:42.416Z,6.47
2023-01-04T03:48:29.872Z,7.32
2023-01-04T03:49:08.799Z,7.45
2023-01-04T03:49:45.658Z,6.70
2023-01-04T03:50:23.565Z,7.00
2023-01-04T03:50:59.569Z,8.30
2023-01-04T03:51:37.419Z,7.50
2023-01-04T03:52:10.991Z,9.88
2023-01-04T03:52:45.714Z,7.72
2023-01-04T03:53:20.738Z,7.93
2023-01-04T03:53:58.150Z,6.18
2023-01-04T03:54:34.774Z,7.80
2023-01-04T03:55:10.853Z,6.60
2023-01-04T03:55:47.656Z,8.50
2023-01-04T03:56:23.457Z,7.43
2023-01-04T03:56:59.370Z,5.20
2023-01-04T03:57:33.801Z,7.28
2023-01-04T03:58:08.293Z,6.20
2023-01-04T03:58:43.523Z,5.72
2023-01-04T03:59:18.047Z,6.25
2023-01-04T03:59:54.145Z,4.85
2023-01-04T04:00:29.926Z,6.20
2023-01-04T04:01:05.522Z,5.78
2023-01-04T04:01:40.293Z,5.30
2023-01-04T04:02:14.501Z,6.18
2023-01-04T04:02:48.713Z,6.88
2023-01-04T04:03:23.581Z,5.28
2023-01-04T04:04:16.186Z,11.38
2023-01-04T04:05:07.458Z,4.43
2023-01-04T04:06:00.733Z,6.47
2023-01-04T04:06:53.601Z,4.57
2023-01-04T04:07:45.470Z,6.43
2023-01-04T04:08:31.304Z,5.03
2023-01-04T04:09:05.099Z,4.82
2023-01-04T04:09:38.667Z,6.10
2023-01-04T04:10:12.756Z,5.07
2023-01-04T04:10:46.377Z,5.78
2023-01-04T04:11:33.428Z,5.88
2023-01-04T04:12:09.681Z,6.25
2023-01-04T04:12:43.829Z,6.20
2023-01-04T04:13:20.854Z,4.88
2023-01-04T04:13:56.222Z,5.10
2023-01-04T04:14:30.210Z,5.47
2023-01-04T04:15:05.547Z,6.50
2023-01-04T04:15:40.029Z,5.18
2023-01-04T04:16:14.315Z,5.35
2023-01-04T04:16:49.966Z,6.30
2023-01-04T04:17:24.082Z,9.20
2023-01-04T04:17:59.481Z,6.03
2023-01-04T04:18:36.236Z,6.25
2023-01-04T04:19:09.413Z,5.68
2023-01-04T04:19:43.775Z,8.77
2023-01-04T04:20:19.247Z,6.45
2023-01-04T04:20:58.243Z,4.22
2023-01-04T04:21:32.790Z,6.25
2023-01-04T04:22:07.499Z,5.72
2023-01-04T04:22:41.709Z,5.95
2023-01-04T04:23:15.270Z,6.43
2023-01-04T04:23:51.040Z,6.30
2023-01-04T04:24:25.090Z,6.70
2023-01-04T04:24:59.268Z,6.78
2023-01-04T04:25:32.535Z,5.97
2023-01-04T04:26:07.651Z,7.68
2023-01-04T04:26:41.609Z,8.77
2023-01-04T04:27:15.755Z,6.85
2023-01-04T04:27:50.733Z,5.00
2023-01-04T04:28:25.722Z,4.47
2023-01-04T04:28:59.600Z,6.35
2023-01-04T04:29:34.798Z,6.45
2023-01-04T04:30:09.330Z,5.47
2023-01-04T04:30:42.946Z,4.40
2023-01-04T04:31:18.948Z,5.65
2023-01-04T04:31:52.202Z,5.25
2023-01-04T04:32:25.859Z,6.50
2023-01-04T04:33:01.055Z,6.60
2023-01-04T04:33:36.140Z,4.55
2023-01-04T04:34:11.128Z,5.82
2023-01-04T04:34:45.251Z,4.90
2023-01-04T04:35:19.619Z,6.32
2023-01-04T04:35:53.256Z,4.72
2023-01-04T04:36:28.072Z,4.65
2023-01-04T04:37:02.246Z,6.38
2023-01-04T04:37:35.738Z,7.38
2023-01-04T04:38:09.648Z,6.05
2023-01-04T04:38:43.087Z,6.57
2023-01-04T04:39:17.826Z,6.47
2023-01-04T04:39:53.629Z,7.07
2023-01-04T04:40:45.562Z,4.07
2023-01-04T04:41:37.576Z,4.85
2023-01-04T04:42:11.719Z,6.05
2023-01-04T04:42:47.043Z,4.30
2023-01-04T04:43:20.932Z,4.30
2023-01-04T04:43:55.674Z,5.38
2023-01-04T04:44:29.220Z,7.32
2023-01-04T04:45:02.773Z,6.22
2023-01-04T04:45:37.467Z,4.85
2023-01-04T04:46:10.714Z,6.05
2023-01-04T04:46:45.510Z,6.22
2023-01-04T04:47:19.808Z,4.47
2023-01-04T04:47:54.003Z,6.00
2023-01-04T04:48:27.692Z,7.07
2023-01-04T04:49:03.817Z,5.55
2023-01-04T04:49:37.852Z,5.50
2023-01-04T04:50:12.126Z,5.03
2023-01-04T04:50:46.452Z,5.10
2023-01-04T04:51:21.965Z,16.20
2023-01-04T04:51:56.286Z,18.00
2023-01-04T04:52:30.858Z,8.50
2023-01-04T04:53:05.889Z,6.97
2023-01-04T04:53:40.564Z,6.40
2023-01-04T04:54:16.983Z,5.38
2023-01-04T04:54:53.140Z,7.55
2023-01-04T04:55:26.547Z,7.45
2023-01-04T04:55:59.999Z,5.68
2023-01-04T04:56:34.559Z,6.90
2023-01-04T04:57:09.042Z,6.32
2023-01-04T04:57:42.131Z,6.00
2023-01-04T04:58:15.163Z,8.13
2023-01-04T04:58:49.215Z,5.97
2023-01-04T04:59:24.768Z,6.63
2023-01-04T04:59:58.447Z,6.78
2023-01-04T05:00:32.589Z,5.43
2023-01-04T05:01:07.096Z,5.13
2023-01-04T05:01:41.505Z,4.97
2023-01-04T05:02:15.345Z,6.43
2023-01-04T05:02:49.721Z,6.00
2023-01-04T05:03:23.075Z,5.38
2023-01-04T05:03:56.470Z,4.60
2023-01-04T05:04:33.651Z,5.25
2023-01-04T05:05:07.321Z,5.82
2023-01-04T05:05:41.607Z,4.63
2023-01-04T05:06:16.845Z,5.55
2023-01-04T05:06:53.962Z,5.18
2023-01-04T05:07:28.555Z,4.78
2023-01-04T05:08:03.991Z,6.22
2023-01-04T05:08:38.127Z,6.15
2023-01-04T05:09:13.420Z,4.97
2023-01-04T05:09:47.653Z,4.03
2023-01-04T05:10:21.038Z,5.13
2023-01-04T05:10:56.605Z,4.38
2023-01-04T05:11:48.027Z,4.57
2023-01-04T05:12:40.762Z,4.88
2023-01-04T05:13:15.475Z,4.68
2023-01-04T05:13:49.754Z,5.18
2023-01-04T05:14:23.491Z,5.30
2023-01-04T05:14:58.819Z,5.43
2023-01-04T05:15:34.340Z,5.55
2023-01-04T05:16:09.845Z,5.57
2023-01-04T05:16:42.808Z,6.03
2023-01-04T05:17:16.459Z,5.10
2023-01-04T05:17:51.407Z,6.28
2023-01-04T05:18:25.610Z,6.05
2023-01-04T05:18:59.695Z,5.10
2023-01-04T05:19:36.380Z,6.28
2023-01-04T05:20:11.456Z,5.55
2023-01-04T05:20:45.853Z,6.38
2023-01-04T05:21:21.341Z,5.55
2023-01-04T05:21:54.754Z,8.18
2023-01-04T05:22:29.012Z,7.68
2023-01-04T05:23:04.109Z,6.32
2023-01-04T05:23:37.796Z,5.57
2023-01-04T05:24:12.708Z,6.82
2023-01-04T05:24:47.088Z,8.20
2023-01-04T05:25:20.332Z,7.05
2023-01-04T05:25:55.104Z,6.38
2023-01-04T05:26:29.921Z,7.18
2023-01-04T05:27:04.224Z,5.30
2023-01-04T05:27:38.881Z,5.90
2023-01-04T05:28:13.686Z,6.55
2023-01-04T05:28:53.384Z,6.38
2023-01-04T05:30:45.158Z,7.18
2023-01-04T05:31:19.406Z,6.22
2023-01-04T05:31:54.686Z,5.35
2023-01-04T05:32:29.413Z,6.95
2023-01-04T05:33:04.253Z,5.55
2023-01-04T05:33:39.506Z,5.40
2023-01-04T05:34:17.137Z,6.03
2023-01-04T05:34:58.245Z,5.53
2023-01-04T05:35:32.314Z,7.30
2023-01-04T05:36:08.495Z,8.35
2023-01-04T05:36:43.376Z,5.68
2023-01-04T05:37:17.633Z,7.03
2023-01-04T05:37:53.457Z,5.97
2023-01-04T05:38:26.545Z,6.38
2023-01-04T05:39:00.636Z,5.53
2023-01-04T05:39:35.843Z,5.82
2023-01-04T05:40:10.769Z,5.30
2023-01-04T05:40:45.690Z,4.75
2023-01-04T05:41:39.110Z,5.47
2023-01-04T05:42:26.067Z,5.75
2023-01-04T05:43:00.822Z,6.38
2023-01-04T05:43:34.476Z,5.57
2023-01-04T05:44:09.128Z,4.75
2023-01-04T05:44:44.868Z,6.75
2023-01-04T05:45:21.150Z,4.57
2023-01-04T05:45:57.033Z,5.35
2023-01-04T05:46:32.338Z,5.07
2023-01-04T05:47:12.894Z,6.18
2023-01-04T05:47:51.532Z,5.75
2023-01-04T05:48:25.894Z,4.72
2023-01-04T05:48:59.904Z,5.43
2023-01-04T05:49:34.084Z,4.97
2023-01-04T05:50:11.125Z,6.18
2023-01-04T05:50:46.263Z,5.70
2023-01-04T05:51:20.274Z,6.90
2023-01-04T05:51:54.996Z,4.50
2023-01-04T05:52:28.646Z,4.82
2023-01-04T05:53:03.453Z,5.25
2023-01-04T05:53:36.885Z,7.38
2023-01-04T05:54:11.047Z,5.30
2023-01-04T05:54:46.439Z,5.53
2023-01-04T05:55:20.149Z,4.65
2023-01-04T05:55:55.203Z,4.47
2023-01-04T05:56:29.866Z,5.45
2023-01-04T05:57:04.204Z,3.38
2023-01-04T05:57:39.040Z,3.72
2023-01-04T05:58:13.487Z,5.20
2023-01-04T05:58:48.177Z,6.25
2023-01-04T05:59:23.596Z,5.25
2023-01-04T05:59:57.384Z,5.25
2023-01-04T06:00:31.957Z,5.47
2023-01-04T06:01:08.431Z,7.35
2023-01-04T06:01:43.190Z,7.82
2023-01-04T06:02:18.863Z,6.25
2023-01-04T06:02:56.119Z,6.18
2023-01-04T06:03:30.353Z,6.00
2023-01-04T06:04:04.755Z,6.45
2023-01-04T06:04:39.229Z,6.10
2023-01-04T06:05:15.189Z,5.43
2023-01-04T06:05:50.612Z,5.80
2023-01-04T06:06:25.296Z,8.00
2023-01-04T06:07:00.461Z,5.90
2023-01-04T06:07:34.467Z,5.07
2023-01-04T06:08:08.691Z,5.40
2023-01-04T06:08:44.649Z,7.05
2023-01-04T06:09:19.565Z,5.50
2023-01-04T06:09:53.283Z,5.63
2023-01-04T06:10:27.964Z,5.32
2023-01-04T06:11:01.362Z,5.78
2023-01-04T06:11:35.080Z,6.10
2023-01-04T06:12:09.675Z,7.10
2023-01-04T06:12:44.198Z,5.78
2023-01-04T06:13:18.905Z,5.78
2023-01-04T06:13:54.041Z,8.68
2023-01-04T06:14:28.680Z,5.20
2023-01-04T06:15:03.486Z,5.07
2023-01-04T06:15:41.237Z,4.50
2023-01-04T06:16:17.400Z,5.85
2023-01-04T06:16:52.308Z,9.10
2023-01-04T06:17:26.162Z,7.55
2023-01-04T06:18:00.732Z,8.50
2023-01-04T06:18:35.417Z,4.85
2023-01-04T06:19:09.089Z,6.80
2023-01-04T06:19:43.795Z,5.53
2023-01-04T06:20:20.194Z,4.93
2023-01-04T06:20:54.386Z,6.47
2023-01-04T06:21:29.988Z,5.35
2023-01-04T06:22:04.111Z,5.88
2023-01-04T06:22:41.185Z,8.88
2023-01-04T06:23:15.318Z,5.22
2023-01-04T06:23:49.105Z,6.13
2023-01-04T06:24:23.894Z,4.30
2023-01-04T06:24:57.581Z,4.70
2023-01-04T06:25:32.708Z,4.50
2023-01-04T06:26:06.420Z,4.35
2023-01-04T06:26:40.534Z,6.20
2023-01-04T06:27:16.079Z,5.05
2023-01-04T06:27:50.848Z,4.05
2023-01-04T06:28:25.308Z,4.53
2023-01-04T06:28:59.576Z,3.97
2023-01-04T06:29:33.762Z,4.65
2023-01-04T06:30:09.058Z,4.85
2023-01-04T06:30:42.754Z,5.03
2023-01-04T06:31:16.315Z,4.68
2023-01-04T06:31:51.344Z,5.85
2023-01-04T06:32:25.410Z,5.38
2023-01-04T06:33:00.379Z,6.88
2023-01-04T06:33:34.197Z,5.53
2023-01-04T06:34:08.944Z,6.30
2023-01-04T06:34:44.152Z,5.63
2023-01-04T06:35:20.059Z,4.70
2023-01-04T06:35:57.966Z,4.97
2023-01-04T06:36:32.450Z,4.07
2023-01-04T06:37:06.110Z,6.18
2023-01-04T06:37:41.885Z,5.22
2023-01-04T06:38:16.261Z,5.22
2023-01-04T06:38:50.569Z,4.18
2023-01-04T06:39:25.583Z,5.43
2023-01-04T06:39:59.160Z,4.15
2023-01-04T06:40:34.561Z,4.55
2023-01-04T06:41:09.121Z,5.05
2023-01-04T06:41:42.771Z,5.70
2023-01-04T06:42:35.174Z,4.70
2023-01-04T06:43:09.953Z,6.75
2023-01-04T06:43:44.079Z,6.50
2023-01-04T06:44:18.216Z,6.72
2023-01-04T06:44:54.118Z,5.95
2023-01-04T06:45:28.772Z,5.28
2023-01-04T06:46:04.217Z,4.55
2023-01-04T06:46:41.754Z,5.47
2023-01-04T06:47:16.109Z,6.43
2023-01-04T06:47:50.903Z,6.57
2023-01-04T06:48:26.333Z,4.65
2023-01-04T06:48:59.995Z,6.85
2023-01-04T06:49:35.384Z,6.53
2023-01-04T06:50:11.149Z,5.47
2023-01-04T06:50:47.201Z,6.43
2023-01-04T06:51:23.005Z,4.65
2023-01-04T06:51:56.652Z,6.40
2023-01-04T06:52:31.368Z,4.93
2023-01-04T06:53:06.042Z,5.00
2023-01-04T06:53:41.220Z,6.03
2023-01-04T06:54:15.069Z,4.68
2023-01-04T06:54:50.807Z,6.07
2023-01-04T06:55:23.930Z,3.92
2023-01-04T06:55:58.613Z,4.75
2023-01-04T06:56:34.431Z,3.92
2023-01-04T06:57:08.038Z,4.22
2023-01-04T06:57:42.523Z,5.50
2023-01-04T06:58:17.337Z,5.28
2023-01-04T06:58:51.131Z,4.60
2023-01-04T06:59:24.790Z,5.00
2023-01-04T07:00:00.206Z,4.35
2023-01-04T07:00:35.136Z,5.57
2023-01-04T07:01:13.750Z,4.07
2023-01-04T07:01:48.074Z,5.32
2023-01-04T07:02:23.354Z,4.68
2023-01-04T07:03:14.850Z,6.47
2023-01-04T07:03:51.078Z,4.38
2023-01-04T07:04:24.863Z,4.65
2023-01-04T07:05:00.808Z,6.13
2023-01-04T07:05:35.050Z,4.43
2023-01-04T07:06:11.224Z,6.05
2023-01-04T07:06:46.641Z,5.82
2023-01-04T07:07:20.867Z,5.65
2023-01-04T07:07:54.475Z,5.57
2023-01-04T07:08:29.233Z,5.10
2023-01-04T07:09:04.516Z,5.70
2023-01-04T07:09:39.686Z,6.38
2023-01-04T07:10:14.563Z,8.23
2023-01-04T07:10:48.792Z,3.67
2023-01-04T07:11:24.290Z,4.25
2023-01-04T07:11:58.413Z,5.20
2023-01-04T07:12:32.151Z,6.88
2023-01-04T07:13:08.898Z,10.30
2023-01-04T07:13:42.785Z,5.40
2023-01-04T07:14:17.798Z,5.72
2023-01-04T07:14:52.048Z,5.47
2023-01-04T07:15:38.061Z,6.30
2023-01-04T07:16:15.219Z,5.03
2023-01-04T07:16:49.726Z,4.53
2023-01-04T07:17:29.622Z,6.45
2023-01-04T07:18:05.400Z,4.78
2023-01-04T07:18:40.206Z,5.93
2023-01-04T07:19:15.695Z,4.00
2023-01-04T07:19:49.312Z,5.78
2023-01-04T07:20:24.089Z,6.18
2023-01-04T07:20:57.760Z,4.68
2023-01-04T07:21:32.761Z,5.18
2023-01-04T07:22:07.701Z,5.50
2023-01-04T07:22:41.936Z,5.88
2023-01-04T07:23:15.628Z,4.57
2023-01-04T07:23:51.017Z,5.38
2023-01-04T07:24:30.096Z,6.00
2023-01-04T07:25:05.340Z,5.72
2023-01-04T07:25:38.997Z,5.10
2023-01-04T07:26:12.613Z,4.38
2023-01-04T07:26:47.919Z,5.63
2023-01-04T07:27:21.683Z,4.55
2023-01-04T07:27:56.372Z,4.32
2023-01-04T07:28:49.649Z,4.63
2023-01-04T07:29:25.390Z,6.05
2023-01-04T07:30:00.076Z,4.97
2023-01-04T07:30:33.833Z,4.55
2023-01-04T07:31:09.415Z,4.90
2023-01-04T07:31:43.991Z,4.88
2023-01-04T07:32:19.171Z,4.18
2023-01-04T07:32:54.282Z,4.28
2023-01-04T07:33:28.660Z,6.47
2023-01-04T07:34:03.934Z,4.97
2023-01-04T07:34:38.849Z,5.05
2023-01-04T07:35:12.435Z,6.25
2023-01-04T07:35:47.537Z,4.35
2023-01-04T07:36:21.213Z,4.28
2023-01-04T07:36:57.254Z,4.63
2023-01-04T07:37:31.363Z,6.05
2023-01-04T07:38:07.675Z,5.93
2023-01-04T07:38:43.718Z,6.20
2023-01-04T07:39:17.875Z,5.70
2023-01-04T07:39:52.111Z,4.88
2023-01-04T07:40:25.238Z,5.20
2023-01-04T07:40:59.589Z,6.55
2023-01-04T07:41:34.577Z,4.57
2023-01-04T07:42:09.513Z,5.95
2023-01-04T07:42:43.082Z,5.18
2023-01-04T07:43:21.474Z,4.95
2023-01-04T07:43:59.489Z,4.68
2023-01-04T07:44:33.134Z,5.25
2023-01-04T07:45:08.433Z,5.93
2023-01-04T07:45:44.771Z,5.10
2023-01-04T07:46:19.240Z,4.30
2023-01-04T07:46:54.058Z,7.65
2023-01-04T07:47:29.715Z,6.35
2023-01-04T07:48:03.981Z,4.85
2023-01-04T07:48:37.028Z,5.20
2023-01-04T07:49:17.609Z,3.88
2023-01-04T07:49:52.128Z,4.03
2023-01-04T07:50:28.210Z,3.85
2023-01-04T07:51:01.923Z,8.80
2023-01-04T07:51:37.451Z,4.00
2023-01-04T07:52:14.215Z,5.13
2023-01-04T07:52:48.446Z,6.68
2023-01-04T07:53:22.725Z,6.45
2023-01-04T07:53:57.635Z,5.68
2023-01-04T07:54:31.180Z,8.07
2023-01-04T07:55:05.433Z,4.20
2023-01-04T07:55:40.245Z,9.88
2023-01-04T07:56:18.459Z,5.90
2023-01-04T07:56:54.148Z,7.80
2023-01-04T07:57:29.317Z,6.55
2023-01-04T07:58:04.130Z,4.88
2023-01-04T07:58:40.114Z,5.40
2023-01-04T07:59:15.081Z,7.00
2023-01-04T07:59:50.828Z,6.03
2023-01-04T08:00:24.842Z,5.47
2023-01-04T08:00:59.681Z,5.43
2023-01-04T08:01:36.104Z,5.53
2023-01-04T08:02:11.362Z,5.85
2023-01-04T08:02:47.325Z,18.10
2023-01-04T08:03:21.199Z,6.65
2023-01-04T08:03:55.545Z,5.53
2023-01-04T08:04:34.963Z,8.18
2023-01-04T08:05:10.688Z,8.70
2023-01-04T08:05:46.190Z,6.90
2023-01-04T08:06:21.315Z,5.13
2023-01-04T08:06:56.754Z,7.85
2023-01-04T08:07:31.808Z,6.80
2023-01-04T08:08:06.681Z,5.60
2023-01-04T08:08:40.435Z,5.82
2023-01-04T08:09:14.614Z,5.07
2023-01-04T08:09:50.279Z,5.60
2023-01-04T08:10:24.780Z,8.30
2023-01-04T08:11:03.557Z,7.47
2023-01-04T08:11:37.151Z,6.22
2023-01-04T08:12:11.933Z,16.13
2023-01-04T08:12:44.996Z,4.97
2023-01-04T08:13:19.087Z,4.72
2023-01-04T08:13:57.288Z,6.13
2023-01-04T08:14:30.945Z,5.18
2023-01-04T08:15:05.098Z,5.70
2023-01-04T08:15:40.884Z,5.43
2023-01-04T08:16:20.191Z,11.68
2023-01-04T08:16:55.024Z,5.75